Terminal Aerodrome Forecast
Issued by NWS Springfield, MO

Home | Current Version | Previous Version | Text Only | Print | Product List | Glossary On
Versions: 1 2 3 4 5 6 7 8 9 10 11 12 13 14 15 16
243
FTUS43 KSGF 090303 AAB
TAFSGF
TAF AMD
KSGF 090303Z 0903/0924 31013KT P6SM SKC
     FM090800 32012KT P6SM SCT250
     FM091400 32015G25KT P6SM SKC=

USA.gov is the U.S. government's official web portal to all federal, state and local government web resources and services.